Time;durP1;ratioP1;P1;durP2;ratioP2;P2;SDS_P1;SDS_P2;PMS_P1;PMS_P2;Temp;Humidity;BMP_temperature;BMP_pressure;BME280_temperature;BME280_humidity;BME280_pressure;Samples;Min_cycle;Max_cycle;Signal;HPM_P1;HPM_P2
2022/10/20 00:01:58;;;;;;;1.00;0.50;;;;;;;4.32;100.00;98466.53;5173186;27;20144;-53
2022/10/20 00:04:24;;;;;;;0.63;0.63;;;;;;;4.02;100.00;98460.56;5173128;27;20109;-51
2022/10/20 00:06:50;;;;;;;0.50;0.40;;;;;;;4.28;100.00;98500.91;5173279;27;20407;-50
2022/10/20 00:09:17;;;;;;;0.50;0.50;;;;;;;4.19;100.00;98484.72;5173101;27;20042;-53
2022/10/20 00:11:44;;;;;;;0.82;0.52;;;;;;;4.01;100.00;98513.22;5173294;27;20049;-53
2022/10/20 00:14:11;;;;;;;1.00;0.60;;;;;;;4.03;100.00;98538.06;5173249;27;20049;-52
2022/10/20 00:16:38;;;;;;;1.00;0.50;;;;;;;4.13;100.00;98545.78;5173181;27;20129;-51
2022/10/20 00:19:05;;;;;;;0.50;0.50;;;;;;;4.13;100.00;98544.97;5173190;27;20045;-49
2022/10/20 00:21:32;;;;;;;0.60;0.60;;;;;;;3.93;100.00;98565.63;5172807;27;20112;-50
2022/10/20 00:23:59;;;;;;;1.35;0.82;;;;;;;4.03;100.00;98564.41;5173432;27;20447;-51
2022/10/20 00:26:27;;;;;;;0.60;0.60;;;;;;;3.93;100.00;98547.44;5172830;27;20546;-50
2022/10/20 00:28:54;;;;;;;3.22;0.77;;;;;;;3.72;100.00;98562.97;5172951;27;20050;-50
2022/10/20 00:31:21;;;;;;;1.45;0.55;;;;;;;3.94;100.00;98575.38;5172817;27;20078;-50
2022/10/20 00:33:47;;;;;;;8.50;0.70;;;;;;;3.69;100.00;98575.25;5172782;27;20519;-50
2022/10/20 00:36:15;;;;;;;0.50;0.50;;;;;;;3.79;100.00;98598.47;5172664;27;20062;-49
2022/10/20 00:38:42;;;;;;;3.83;0.60;;;;;;;3.87;100.00;98596.81;5172816;27;20042;-50
2022/10/20 00:41:11;;;;;;;0.70;0.70;;;;;;;3.72;100.00;98581.94;5172910;27;20567;-50
2022/10/20 00:43:43;;;;;;;0.90;0.40;;;;;;;3.58;100.00;98622.09;5172418;27;20050;-50
2022/10/20 00:46:11;;;;;;;1.30;0.70;;;;;;;3.53;100.00;98614.94;5172766;27;20048;-51
2022/10/20 00:48:38;;;;;;;1.85;0.60;;;;;;;3.64;100.00;98626.19;5172238;27;20618;-53
2022/10/20 00:51:05;;;;;;;0.88;0.70;;;;;;;3.43;100.00;98637.03;5172508;27;20057;-50
2022/10/20 00:53:33;;;;;;;3.17;0.63;;;;;;;3.41;100.00;98652.84;5172162;27;20050;-52
2022/10/20 00:56:00;;;;;;;0.70;0.68;;;;;;;3.33;100.00;98667.22;5172455;27;20050;-53
2022/10/20 00:58:28;;;;;;;1.85;0.40;;;;;;;3.42;100.00;98682.31;5172192;27;20046;-50
2022/10/20 01:00:57;;;;;;;0.82;0.60;;;;;;;3.23;100.00;98699.00;5172083;27;20493;-49
2022/10/20 01:03:29;;;;;;;0.52;0.52;;;;;;;3.21;100.00;98703.94;5172152;27;20064;-51
2022/10/20 01:05:55;;;;;;;0.98;0.47;;;;;;;3.20;100.00;98671.75;5172048;27;20097;-51
2022/10/20 01:08:22;;;;;;;0.60;0.60;;;;;;;3.10;100.00;98601.72;5172339;27;20085;-50
2022/10/20 01:10:58;;;;;;;0.40;0.40;;;;;;;3.07;100.00;98624.84;5175776;27;20058;-51
2022/10/20 01:13:34;;;;;;;2.75;0.60;;;;;;;3.11;100.00;98623.06;5176051;27;20046;-49
2022/10/20 01:16:09;;;;;;;0.50;0.50;;;;;;;2.97;100.00;98619.81;5175859;27;20042;-50
2022/10/20 01:18:45;;;;;;;4.70;0.60;;;;;;;3.00;100.00;98646.22;5176178;27;20054;-49
2022/10/20 01:21:26;;;;;;;0.70;0.60;;;;;;;3.02;100.00;98660.25;5175439;27;20064;-50
2022/10/20 01:24:21;;;;;;;3.22;0.50;;;;;;;3.12;100.00;98611.09;5175700;27;20057;-49
2022/10/20 01:27:15;;;;;;;0.50;0.50;;;;;;;3.00;100.00;98641.63;5140520;27;20042;-50
2022/10/20 01:29:45;;;;;;;3.00;0.60;;;;;;;2.81;100.00;98665.59;5175554;27;20153;-49
2022/10/20 01:32:19;;;;;;;3.10;0.70;;;;;;;2.76;100.00;98714.50;5175387;27;20134;-50
2022/10/20 01:34:53;;;;;;;0.85;0.60;;;;;;;2.78;100.00;98742.84;5175392;27;20429;-49
2022/10/20 01:37:28;;;;;;;1.23;0.60;;;;;;;2.94;100.00;98755.84;5175415;27;20058;-49
2022/10/20 01:40:00;;;;;;;0.57;0.50;;;;;;;2.70;100.00;98781.56;5175959;27;20046;-50
2022/10/20 01:42:28;;;;;;;0.50;0.50;;;;;;;2.74;100.00;98816.91;5175052;27;20095;-50
2022/10/20 01:45:00;;;;;;;0.82;0.75;;;;;;;2.83;100.00;98817.66;5175343;27;20042;-50
2022/10/20 01:47:28;;;;;;;0.80;0.77;;;;;;;2.81;100.00;98828.03;5175220;27;20050;-49
2022/10/20 01:49:56;;;;;;;0.40;0.40;;;;;;;2.70;100.00;98865.47;5175464;27;20042;-50
2022/10/20 01:52:23;;;;;;;1.92;0.55;;;;;;;2.61;100.00;98878.22;5175467;27;20046;-50
2022/10/20 01:54:50;;;;;;;2.58;0.60;;;;;;;2.64;100.00;98896.53;5175246;27;20054;-53
2022/10/20 01:57:35;;;;;;;0.60;0.60;;;;;;;2.68;100.00;98907.50;5175570;27;20445;-51
2022/10/20 02:00:05;;;;;;;0.95;0.63;;;;;;;2.55;100.00;98922.78;5175203;27;20046;-50
2022/10/20 02:02:49;;;;;;;1.95;0.70;;;;;;;2.67;100.00;98933.00;5175071;27;20050;-50
2022/10/20 02:05:29;;;;;;;0.90;0.68;;;;;;;2.56;100.00;98967.66;5175034;27;20082;-49
2022/10/20 02:08:04;;;;;;;0.57;0.57;;;;;;;2.75;100.00;98968.16;5175508;27;20430;-49
2022/10/20 02:10:38;;;;;;;0.50;0.50;;;;;;;2.44;100.00;98989.16;5174839;27;20493;-50
2022/10/20 02:13:08;;;;;;;2.38;0.60;;;;;;;2.57;100.00;99094.56;5174853;27;20088;-50
2022/10/20 02:15:39;;;;;;;0.82;0.75;;;;;;;2.38;100.00;99128.38;5175067;27;20213;-50
2022/10/20 02:18:08;;;;;;;0.50;0.47;;;;;;;2.50;100.00;99207.88;5174997;27;20106;-49
2022/10/20 02:20:35;;;;;;;1.00;0.88;;;;;;;2.40;100.00;99262.25;5174424;27;20133;-49
2022/10/20 02:23:04;;;;;;;1.30;0.80;;;;;;;2.45;100.00;99291.88;5174636;27;20049;-50
2022/10/20 02:25:32;;;;;;;1.58;0.95;;;;;;;2.22;100.00;99322.72;5174689;27;20046;-49
2022/10/20 02:28:00;;;;;;;1.63;0.73;;;;;;;2.17;100.00;99383.16;5174689;27;20050;-51
2022/10/20 02:30:27;;;;;;;0.70;0.70;;;;;;;2.29;100.00;99424.00;5174601;27;20519;-49
2022/10/20 02:32:54;;;;;;;1.05;0.80;;;;;;;2.02;100.00;99429.44;5174423;27;20066;-51
2022/10/20 02:35:22;;;;;;;2.00;0.73;;;;;;;2.05;100.00;99499.94;5174784;27;20053;-51
2022/10/20 02:37:50;;;;;;;1.20;0.70;;;;;;;2.09;100.00;99538.81;5174571;27;20535;-53
2022/10/20 02:40:16;;;;;;;1.38;0.80;;;;;;;2.17;100.00;99558.19;5174462;27;20054;-50
2022/10/20 02:42:42;;;;;;;1.45;0.90;;;;;;;1.88;100.00;99573.53;5174505;27;20046;-51
2022/10/20 02:45:10;;;;;;;0.70;0.70;;;;;;;1.87;100.00;99587.38;5174323;27;20140;-52
2022/10/20 02:47:36;;;;;;;1.80;0.80;;;;;;;1.96;100.00;99647.75;5174455;27;20050;-50
2022/10/20 02:50:03;;;;;;;2.17;0.47;;;;;;;1.87;100.00;99660.38;5174325;27;20556;-49
2022/10/20 02:52:29;;;;;;;3.00;0.80;;;;;;;1.92;100.00;99681.91;5174194;27;20089;-49
2022/10/20 02:54:56;;;;;;;0.60;0.60;;;;;;;1.75;100.00;99697.84;5174214;27;20042;-51
2022/10/20 02:57:22;;;;;;;0.60;0.60;;;;;;;1.82;100.00;99717.22;5174086;27;20068;-49
2022/10/20 02:59:48;;;;;;;1.85;0.80;;;;;;;1.69;100.00;99744.97;5174067;27;20046;-50
2022/10/20 03:02:14;;;;;;;1.20;0.70;;;;;;;1.87;100.00;99753.09;5173895;27;20092;-51
2022/10/20 03:04:41;;;;;;;1.13;0.88;;;;;;;1.80;100.00;99741.00;5173944;27;20053;-49
2022/10/20 03:07:07;;;;;;;1.65;0.60;;;;;;;1.35;100.00;99740.56;5173840;27;20087;-49
2022/10/20 03:09:34;;;;;;;3.45;0.65;;;;;;;1.57;100.00;99797.56;5174024;27;20576;-50
2022/10/20 03:12:01;;;;;;;0.60;0.60;;;;;;;1.44;100.00;99800.97;5173886;27;20085;-49
2022/10/20 03:14:27;;;;;;;2.33;0.80;;;;;;;1.33;100.00;99831.88;5173983;27;20082;-49
2022/10/20 03:16:53;;;;;;;0.60;0.60;;;;;;;1.52;100.00;99858.97;5174154;27;20050;-50
2022/10/20 03:19:20;;;;;;;0.80;0.50;;;;;;;1.58;100.00;99857.81;5174575;27;20647;-50
2022/10/20 03:21:47;;;;;;;0.80;0.60;;;;;;;1.58;100.00;99860.50;5174257;27;20504;-50
2022/10/20 03:24:14;;;;;;;0.80;0.80;;;;;;;1.39;100.00;99861.25;5173903;27;20196;-51
2022/10/20 03:26:40;;;;;;;0.75;0.60;;;;;;;1.56;100.00;99876.19;5173959;27;20149;-49
2022/10/20 03:29:06;;;;;;;0.65;0.60;;;;;;;1.55;100.00;99880.81;5174150;27;20455;-49
2022/10/20 03:31:32;;;;;;;2.42;0.85;;;;;;;1.55;100.00;99875.41;5172712;27;20050;-49
2022/10/20 03:33:59;;;;;;;0.68;0.65;;;;;;;1.41;100.00;99866.38;5173625;27;20102;-50
2022/10/20 03:36:25;;;;;;;1.77;0.82;;;;;;;1.19;100.00;99877.66;5173480;27;20506;-49
2022/10/20 03:38:52;;;;;;;1.30;0.68;;;;;;;1.22;100.00;99906.81;5173368;27;20050;-48
2022/10/20 03:41:18;;;;;;;3.85;0.80;;;;;;;1.02;100.00;99921.31;5173458;27;20061;-49
2022/10/20 03:43:44;;;;;;;2.55;0.90;;;;;;;0.79;100.00;99940.91;5173312;27;20121;-49
2022/10/20 03:46:11;;;;;;;3.60;0.80;;;;;;;0.96;100.00;99948.63;5173465;27;20046;-50
2022/10/20 03:48:39;;;;;;;0.95;0.82;;;;;;;0.99;100.00;99967.75;5173471;27;20050;-49
2022/10/20 03:51:05;;;;;;;0.93;0.70;;;;;;;1.21;100.00;99964.63;5173202;27;20054;-49
2022/10/20 03:53:32;;;;;;;3.85;1.02;;;;;;;1.01;100.00;99964.78;5173171;27;20042;-49
2022/10/20 03:55:58;;;;;;;1.23;0.80;;;;;;;0.93;100.00;99972.41;5173681;27;20046;-49
2022/10/20 03:58:25;;;;;;;1.48;0.90;;;;;;;0.93;100.00;99966.19;5173090;27;20050;-50
2022/10/20 04:00:51;;;;;;;0.90;0.90;;;;;;;0.81;100.00;99974.66;5173423;27;20078;-49
2022/10/20 04:03:17;;;;;;;1.35;1.00;;;;;;;0.94;100.00;99986.72;5173134;27;20129;-49
2022/10/20 04:05:44;;;;;;;1.35;0.75;;;;;;;0.85;100.00;99989.19;5172997;27;20048;-50
2022/10/20 04:08:10;;;;;;;1.52;1.10;;;;;;;0.91;100.00;99989.97;5173163;27;20492;-50
2022/10/20 04:10:36;;;;;;;1.42;1.00;;;;;;;0.84;100.00;99989.47;5172979;27;20484;-50
2022/10/20 04:13:03;;;;;;;1.25;1.10;;;;;;;0.97;100.00;99988.03;5173019;27;20163;-50
2022/10/20 04:15:30;;;;;;;2.20;1.20;;;;;;;0.83;100.00;99990.56;5172927;27;20042;-49
2022/10/20 04:17:56;;;;;;;4.90;1.30;;;;;;;0.68;100.00;99999.56;5172802;27;20050;-49
2022/10/20 04:20:22;;;;;;;2.28;0.98;;;;;;;0.76;100.00;100003.56;5172864;27;20050;-49
2022/10/20 04:22:49;;;;;;;1.00;0.90;;;;;;;0.71;100.00;100007.09;5172759;27;20050;-49
2022/10/20 04:25:15;;;;;;;1.27;1.17;;;;;;;0.79;100.00;100005.69;5172648;27;20121;-50
2022/10/20 04:27:41;;;;;;;1.10;1.00;;;;;;;1.00;100.00;100001.78;5172940;27;20046;-49
2022/10/20 04:30:10;;;;;;;4.72;1.60;;;;;;;0.91;100.00;100011.56;5172590;27;20533;-51
2022/10/20 04:32:36;;;;;;;1.30;1.20;;;;;;;0.92;100.00;100005.88;5172451;27;20509;-52
2022/10/20 04:35:03;;;;;;;1.60;1.42;;;;;;;0.87;100.00;100005.94;5172707;27;20416;-49
2022/10/20 04:37:29;;;;;;;1.38;1.20;;;;;;;0.96;100.00;100006.13;5172413;27;20050;-49
2022/10/20 04:39:56;;;;;;;1.50;1.40;;;;;;;1.20;100.00;100008.13;5172666;27;20552;-50
2022/10/20 04:42:22;;;;;;;2.58;1.30;;;;;;;1.37;100.00;100022.84;5172439;27;20046;-49
2022/10/20 04:44:49;;;;;;;2.20;1.40;;;;;;;1.47;100.00;100027.38;5172344;27;20073;-50
2022/10/20 04:47:15;;;;;;;1.58;1.08;;;;;;;1.46;100.00;100039.25;5172338;27;20046;-50
2022/10/20 04:49:42;;;;;;;2.92;0.95;;;;;;;1.73;100.00;100035.22;5172396;27;20053;-50
2022/10/20 04:52:09;;;;;;;2.95;1.30;;;;;;;1.42;100.00;100039.00;5172265;27;20057;-50
2022/10/20 04:54:35;;;;;;;1.35;1.08;;;;;;;1.41;100.00;100047.41;5172501;27;20050;-52
2022/10/20 04:57:03;;;;;;;1.40;1.30;;;;;;;1.32;100.00;100043.69;5172351;27;20067;-51
2022/10/20 04:59:29;;;;;;;2.65;1.20;;;;;;;1.50;100.00;100044.88;5172344;27;20413;-51
2022/10/20 05:01:55;;;;;;;1.15;1.05;;;;;;;1.73;100.00;100048.75;5172075;27;20126;-50
2022/10/20 05:04:22;;;;;;;1.98;1.30;;;;;;;1.56;100.00;100044.56;5171991;27;20464;-52
2022/10/20 05:06:49;;;;;;;3.42;1.20;;;;;;;1.50;100.00;100042.19;5172154;27;20524;-50
2022/10/20 05:09:16;;;;;;;3.17;1.20;;;;;;;1.31;100.00;100040.19;5171813;27;20050;-52
2022/10/20 05:11:42;;;;;;;1.02;1.02;;;;;;;1.52;100.00;100048.13;5172114;27;20054;-51
2022/10/20 05:14:08;;;;;;;4.30;1.48;;;;;;;1.76;100.00;100053.59;5171925;27;20460;-49
2022/10/20 05:16:35;;;;;;;1.50;1.10;;;;;;;1.57;100.00;100046.19;5172366;27;20137;-49
2022/10/20 05:19:01;;;;;;;3.58;1.40;;;;;;;1.68;100.00;100041.50;5172097;27;20056;-54
2022/10/20 05:21:30;;;;;;;1.50;1.40;;;;;;;1.68;100.00;100041.50;5172308;27;20085;-53
2022/10/20 05:23:58;;;;;;;11.05;1.30;;;;;;;1.89;100.00;100053.72;5172048;27;20557;-52
2022/10/20 05:26:25;;;;;;;1.52;1.42;;;;;;;1.88;100.00;100044.00;5171900;27;20458;-51
2022/10/20 05:28:52;;;;;;;1.63;1.52;;;;;;;1.65;100.00;100039.38;5171735;27;20047;-50
2022/10/20 05:31:20;;;;;;;4.15;1.67;;;;;;;1.77;100.00;100053.31;5171554;27;20046;-53
2022/10/20 05:33:49;;;;;;;1.75;1.48;;;;;;;1.84;100.00;100055.69;5171950;27;20042;-50
2022/10/20 05:36:18;;;;;;;2.88;1.73;;;;;;;1.92;100.00;100051.56;5171523;27;20050;-52
2022/10/20 05:38:45;;;;;;;2.47;1.75;;;;;;;2.02;100.00;100035.22;5171590;27;20054;-53
2022/10/20 05:41:15;;;;;;;1.70;1.30;;;;;;;2.10;100.00;100015.69;5171542;27;20578;-50
2022/10/20 05:43:41;;;;;;;4.90;1.92;;;;;;;2.35;100.00;99999.13;5171500;27;20050;-51
2022/10/20 05:46:08;;;;;;;1.50;1.38;;;;;;;2.40;100.00;99959.56;5171622;27;20074;-50
2022/10/20 05:48:35;;;;;;;1.40;1.20;;;;;;;2.09;100.00;99925.59;5171725;27;20046;-52
2022/10/20 05:51:08;;;;;;;1.55;1.38;;;;;;;2.03;100.00;99897.00;5171468;27;20076;-55
2022/10/20 05:53:35;;;;;;;1.30;1.20;;;;;;;2.46;100.00;99905.06;5171642;27;20133;-61
2022/10/20 05:56:06;;;;;;;2.88;1.95;;;;;;;2.64;100.00;99887.22;5173807;27;20056;-56
2022/10/20 05:58:32;;;;;;;2.05;1.50;;;;;;;2.63;100.00;99836.88;5175159;27;20046;-54
2022/10/20 06:01:06;;;;;;;1.48;1.10;;;;;;;2.39;100.00;99811.81;5175278;27;20050;-54
2022/10/20 06:03:32;;;;;;;;;;;;;;;2.52;100.00;99854.38;5175364;27;20050;-55
2022/10/20 06:05:59;;;;;;;2.10;1.25;;;;;;;2.99;100.00;99801.84;5174806;27;20389;-57
2022/10/20 06:08:28;;;;;;;5.22;1.55;;;;;;;2.91;100.00;99744.88;5174782;27;20099;-56
2022/10/20 06:10:55;;;;;;;1.50;1.33;;;;;;;2.63;100.00;99677.16;5174750;27;20054;-59
2022/10/20 06:13:22;;;;;;;4.55;1.80;;;;;;;2.89;100.00;99728.94;5174690;27;20552;-54
2022/10/20 06:15:48;;;;;;;4.72;1.85;;;;;;;2.87;100.00;99682.41;5174833;27;20456;-54
2022/10/20 06:18:14;;;;;;;2.88;1.35;;;;;;;3.16;100.00;99651.47;5174633;27;20078;-53
2022/10/20 06:20:40;;;;;;;1.02;1.02;;;;;;;3.06;100.00;99639.72;5174660;27;20046;-54
2022/10/20 06:23:07;;;;;;;1.65;1.10;;;;;;;3.08;100.00;99558.19;5174793;27;20056;-54
2022/10/20 06:25:33;;;;;;;1.85;1.13;;;;;;;3.38;100.00;99548.53;5174548;27;20409;-55
2022/10/20 06:27:59;;;;;;;1.67;1.30;;;;;;;3.33;100.00;99471.97;5174920;27;20556;-54
2022/10/20 06:30:26;;;;;;;1.23;1.10;;;;;;;3.86;100.00;99427.75;5174717;27;20048;-57
2022/10/20 06:32:54;;;;;;;1.88;1.30;;;;;;;3.69;100.00;99334.38;5174734;27;20054;-57
2022/10/20 06:35:20;;;;;;;1.40;1.17;;;;;;;3.49;100.00;99257.16;5174864;27;20046;-56
2022/10/20 06:37:46;;;;;;;1.95;1.30;;;;;;;3.66;100.00;99248.25;5174638;27;20053;-56
2022/10/20 06:40:13;;;;;;;4.22;1.15;;;;;;;3.77;100.00;99254.97;5174728;27;20573;-54
2022/10/20 06:42:39;;;;;;;1.10;1.00;;;;;;;4.17;100.00;99176.16;5173997;27;20110;-54
2022/10/20 06:45:06;;;;;;;1.25;1.15;;;;;;;5.25;100.00;99061.75;5174296;27;20054;-55
2022/10/20 06:47:34;;;;;;;3.58;1.08;;;;;;;5.25;100.00;98847.03;5174611;27;20186;-58
2022/10/20 06:50:00;;;;;;;1.77;1.67;;;;;;;5.88;100.00;98822.25;5174551;27;20046;-56
2022/10/20 06:52:26;;;;;;;2.70;1.23;;;;;;;6.35;100.00;98786.31;5174120;27;20050;-57
2022/10/20 06:54:52;;;;;;;2.92;1.27;;;;;;;7.01;100.00;98769.44;5174323;27;20573;-56
2022/10/20 06:57:19;;;;;;;2.28;1.10;;;;;;;7.42;100.00;98821.84;5174340;27;20053;-56
2022/10/20 06:59:47;;;;;;;2.95;1.40;;;;;;;7.82;100.00;98891.03;5174197;27;20061;-57
2022/10/20 07:02:14;;;;;;;8.18;1.25;;;;;;;8.32;100.00;98944.88;5173819;27;20065;-57
2022/10/20 07:04:41;;;;;;;29.45;2.38;;;;;;;8.99;100.00;98998.69;5174023;27;20552;-59
2022/10/20 07:07:07;;;;;;;18.52;2.17;;;;;;;8.97;100.00;99037.34;5172797;27;20045;-59
2022/10/20 07:09:33;;;;;;;78.82;5.78;;;;;;;9.84;100.00;99087.22;5173920;27;20050;-60
2022/10/20 07:12:01;;;;;;;74.60;4.22;;;;;;;9.97;100.00;99112.50;5173828;27;20082;-59
2022/10/20 07:14:27;;;;;;;9.40;1.20;;;;;;;8.94;100.00;99147.41;5173708;27;20137;-59
2022/10/20 07:16:54;;;;;;;1.92;1.00;;;;;;;9.12;100.00;99110.31;5174255;27;20065;-61
2022/10/20 07:19:20;;;;;;;5.75;1.52;;;;;;;9.43;100.00;99155.97;5173746;27;20190;-59
2022/10/20 07:21:47;;;;;;;4.13;1.67;;;;;;;9.79;100.00;99169.63;5173880;27;20497;-58
2022/10/20 07:24:15;;;;;;;15.60;1.73;;;;;;;10.48;100.00;99195.28;5173869;27;20085;-59
2022/10/20 07:26:42;;;;;;;2.15;0.93;;;;;;;10.71;100.00;99233.69;5173504;27;20540;-60
2022/10/20 07:29:10;;;;;;;1.88;1.17;;;;;;;10.38;100.00;99230.72;5173624;27;20057;-59
2022/10/20 07:31:39;;;;;;;2.35;1.17;;;;;;;9.64;100.00;99209.59;5173761;27;20050;-59
2022/10/20 07:34:06;;;;;;;3.35;1.40;;;;;;;9.22;100.00;99199.25;5173322;27;20047;-61
2022/10/20 07:36:34;;;;;;;3.30;0.82;;;;;;;9.58;100.00;99187.19;5173203;27;20050;-60
2022/10/20 07:39:03;;;;;;;13.88;1.40;;;;;;;9.37;100.00;99183.97;5173816;27;20050;-60
2022/10/20 07:41:30;;;;;;;15.10;1.33;;;;;;;8.19;100.00;99116.22;5173667;27;20050;-57
2022/10/20 07:43:56;;;;;;;1.30;0.95;;;;;;;8.02;100.00;99073.66;5173436;27;20092;-60
2022/10/20 07:46:23;;;;;;;10.50;1.13;;;;;;;7.39;100.00;99051.66;5173780;27;20050;-60
2022/10/20 07:48:49;;;;;;;1.67;0.88;;;;;;;7.29;100.00;98967.59;5173685;27;20042;-59
2022/10/20 07:51:23;;;;;;;1.48;0.80;;;;;;;7.23;100.00;98944.44;5173496;27;20061;-60
2022/10/20 07:53:51;;;;;;;0.90;0.90;;;;;;;6.79;100.00;98928.81;5173230;27;20046;-60
2022/10/20 07:56:19;;;;;;;3.42;0.98;;;;;;;6.65;100.00;98906.63;5173230;27;20054;-55
2022/10/20 07:58:45;;;;;;;2.20;1.08;;;;;;;7.50;100.00;98921.81;5173043;27;20207;-59
2022/10/20 08:01:12;;;;;;;1.45;1.00;;;;;;;8.37;100.00;98973.88;5172907;27;20137;-59
2022/10/20 08:03:38;;;;;;;2.08;1.00;;;;;;;9.29;100.00;99065.38;5172865;27;20054;-58
2022/10/20 08:06:05;;;;;;;0.65;0.60;;;;;;;8.86;100.00;99142.91;5172951;27;20042;-58
2022/10/20 08:08:32;;;;;;;4.90;0.77;;;;;;;9.22;100.00;99154.69;5173036;27;20053;-59
2022/10/20 08:10:59;;;;;;;1.10;0.70;;;;;;;9.04;100.00;99209.78;5173014;27;20050;-60
2022/10/20 08:13:27;;;;;;;1.33;0.60;;;;;;;9.06;100.00;99203.94;5173235;27;20054;-59
2022/10/20 08:15:54;;;;;;;4.43;2.55;;;;;;;9.44;100.00;99211.50;5172954;27;20137;-61
2022/10/20 08:18:20;;;;;;;3.00;0.75;;;;;;;9.31;100.00;99246.38;5172440;27;20050;-59
2022/10/20 08:20:47;;;;;;;0.73;0.73;;;;;;;9.46;100.00;99236.53;5172703;27;20054;-60
2022/10/20 08:23:14;;;;;;;0.88;0.57;;;;;;;9.19;100.00;99222.63;5172983;27;20054;-61
2022/10/20 08:25:41;;;;;;;1.85;0.95;;;;;;;9.47;100.00;99231.88;5172719;27;20098;-60
2022/10/20 08:28:08;;;;;;;1.90;0.60;;;;;;;9.98;100.00;99243.56;5172530;27;20050;-60
2022/10/20 08:30:36;;;;;;;1.63;0.80;;;;;;;10.16;100.00;99276.03;5172907;27;20588;-59
2022/10/20 08:33:03;;;;;;;1.27;0.80;;;;;;;10.13;100.00;99283.81;5172558;27;20133;-60
2022/10/20 08:35:29;;;;;;;4.72;0.77;;;;;;;10.46;100.00;99292.72;5172343;27;20050;-60
2022/10/20 08:37:55;;;;;;;0.60;0.60;;;;;;;10.60;100.00;99312.22;5172404;27;20141;-62
2022/10/20 08:40:25;;;;;;;0.88;0.77;;;;;;;10.63;100.00;99306.03;5172625;27;20050;-61
2022/10/20 08:42:52;;;;;;;1.00;0.80;;;;;;;11.19;100.00;99335.66;5172442;27;20069;-61
2022/10/20 08:45:20;;;;;;;21.70;1.40;;;;;;;10.88;100.00;99333.13;5172239;27;20057;-62
2022/10/20 08:47:51;;;;;;;24.23;1.67;;;;;;;11.24;100.00;99327.13;5172271;27;20053;-62
2022/10/20 08:50:19;;;;;;;6.32;1.00;;;;;;;10.93;100.00;99317.19;5172103;27;20052;-62
2022/10/20 08:52:50;;;;;;;2.90;1.00;;;;;;;11.18;100.00;99319.56;5172345;27;20065;-62
2022/10/20 08:55:24;;;;;;;6.50;1.30;;;;;;;11.01;100.00;99321.63;5172151;27;20054;-62
2022/10/20 08:57:50;;;;;;;39.03;2.03;;;;;;;11.46;100.00;99333.81;5171927;27;20436;-62
2022/10/20 09:00:19;;;;;;;32.20;2.08;;;;;;;10.63;100.00;99336.19;5172017;27;20096;-62
2022/10/20 09:02:46;;;;;;;31.65;2.00;;;;;;;10.14;100.00;99307.31;5171940;27;20133;-62
2022/10/20 09:05:14;;;;;;;2.83;0.85;;;;;;;10.40;100.00;99289.50;5172010;27;20097;-62
2022/10/20 09:07:41;;;;;;;1.10;1.00;;;;;;;10.01;100.00;99283.94;5172039;27;20200;-62
2022/10/20 09:10:20;;;;;;;0.90;0.90;;;;;;;10.25;100.00;99260.97;5172093;27;20515;-62
2022/10/20 09:12:47;;;;;;;3.88;1.35;;;;;;;10.07;100.00;99281.72;5172199;27;20086;-62
2022/10/20 09:15:16;;;;;;;3.95;0.80;;;;;;;9.99;100.00;99271.75;5172169;27;20604;-60
2022/10/20 09:17:45;;;;;;;3.60;0.55;;;;;;;8.99;100.00;99228.38;5171913;27;20057;-61
2022/10/20 09:20:18;;;;;;;3.47;0.70;;;;;;;8.97;100.00;99206.06;5172262;27;20166;-59
2022/10/20 09:22:46;;;;;;;0.82;0.82;;;;;;;8.31;100.00;99164.53;5171903;27;20520;-61
2022/10/20 09:25:15;;;;;;;0.80;0.80;;;;;;;8.37;100.00;99135.03;5171805;27;20046;-59
2022/10/20 09:27:43;;;;;;;3.60;1.23;;;;;;;8.73;100.00;99136.75;5171693;27;20089;-60
2022/10/20 09:30:18;;;;;;;1.80;0.75;;;;;;;8.77;100.00;99169.66;5172998;27;20103;-60
2022/10/20 09:32:45;;;;;;;1.40;0.70;;;;;;;8.67;100.00;99166.28;5175815;27;20093;-61
2022/10/20 09:35:25;;;;;;;1.77;0.52;;;;;;;9.54;100.00;99215.63;5175541;27;20042;-60
2022/10/20 09:37:56;;;;;;;2.15;0.80;;;;;;;9.18;100.00;99210.09;5175766;27;20061;-59
2022/10/20 09:40:25;;;;;;;0.77;0.68;;;;;;;8.75;100.00;99174.66;5175620;27;20099;-60
2022/10/20 09:42:54;;;;;;;4.03;1.25;;;;;;;9.00;100.00;99180.72;5175429;27;20082;-59
2022/10/20 09:45:27;;;;;;;3.47;1.80;;;;;;;8.67;100.00;99157.31;5175371;27;20137;-60
2022/10/20 09:47:58;;;;;;;3.75;2.28;;;;;;;8.47;100.00;99150.94;5175390;27;20049;-59
2022/10/20 09:50:29;;;;;;;2.17;0.80;;;;;;;8.36;100.00;99120.56;5175147;27;20046;-59
2022/10/20 09:52:57;;;;;;;1.50;0.82;;;;;;;8.16;100.00;99106.03;5175181;27;20058;-58
2022/10/20 09:55:28;;;;;;;1.30;0.80;;;;;;;8.04;100.00;99075.25;5175013;27;20046;-60
2022/10/20 09:57:56;;;;;;;1.50;1.15;;;;;;;8.46;100.00;99051.78;5174997;27;20050;-58
2022/10/20 10:00:24;;;;;;;0.80;0.80;;;;;;;8.29;100.00;99086.81;5175266;27;20057;-60
2022/10/20 10:03:08;;;;;;;3.60;0.98;;;;;;;8.84;100.00;99128.81;5174845;27;20493;-58
2022/10/20 10:05:35;;;;;;;0.90;0.70;;;;;;;9.49;100.00;99151.00;5174982;27;20054;-60
2022/10/20 10:08:01;;;;;;;2.13;0.98;;;;;;;9.43;100.00;99220.88;5174987;27;20584;-59
2022/10/20 10:10:30;;;;;;;3.92;0.70;;;;;;;9.21;100.00;99202.34;5174783;27;20046;-59
2022/10/20 10:12:59;;;;;;;1.58;0.60;;;;;;;9.57;100.00;99206.72;5174879;27;20053;-59
2022/10/20 10:15:32;;;;;;;0.70;0.70;;;;;;;9.41;100.00;99210.25;5174915;27;20439;-59
2022/10/20 10:17:58;;;;;;;1.00;0.90;;;;;;;9.41;100.00;99229.41;5174907;27;20053;-60
2022/10/20 10:20:33;;;;;;;0.60;0.60;;;;;;;9.49;100.00;99233.09;5174826;27;20064;-61
2022/10/20 10:23:22;;;;;;;1.60;0.60;;;;;;;9.12;100.00;99246.28;5174561;27;20050;-58
2022/10/20 10:25:49;;;;;;;1.48;0.75;;;;;;;8.97;100.00;99214.28;5174237;27;20057;-59
2022/10/20 10:28:35;;;;;;;2.00;0.70;;;;;;;8.73;100.00;99210.56;5174464;27;20059;-59
2022/10/20 10:31:21;;;;;;;1.45;0.80;;;;;;;8.89;100.00;99202.34;5174339;27;20046;-58
2022/10/20 10:33:49;;;;;;;3.97;1.00;;;;;;;9.30;100.00;99239.31;5173812;27;20137;-60
2022/10/20 10:36:27;;;;;;;28.08;3.33;;;;;;;9.60;100.00;99256.06;5174376;27;20125;-62
2022/10/20 10:38:55;;;;;;;22.92;2.22;;;;;;;9.86;100.00;99258.22;5174540;27;20292;-60
2022/10/20 10:41:35;;;;;;;19.15;1.20;;;;;;;10.28;100.00;99328.78;5174280;27;20054;-61
2022/10/20 10:44:10;;;;;;;15.68;1.95;;;;;;;10.16;100.00;99328.88;5174108;27;20048;-61
2022/10/20 10:46:41;;;;;;;7.30;2.38;;;;;;;10.01;100.00;99343.41;5174640;27;20129;-58
2022/10/20 10:49:31;;;;;;;21.33;2.60;;;;;;;10.22;100.00;99323.91;5174164;27;20502;-60
2022/10/20 10:52:08;;;;;;;9.25;1.58;;;;;;;9.89;100.00;99334.13;5174100;27;20046;-54
2022/10/20 10:54:55;;;;;;;3.75;0.73;;;;;;;9.90;100.00;99322.06;5174003;27;20137;-56
2022/10/20 10:57:29;;;;;;;26.58;2.95;;;;;;;10.03;100.00;99295.34;5174414;27;20466;-56
2022/10/20 10:59:59;;;;;;;8.07;2.45;;;;;;;10.27;100.00;99310.75;5174636;27;20061;-62
2022/10/20 11:02:58;;;;;;;20.55;2.45;;;;;;;10.22;100.00;99307.47;5173797;27;20046;-62
2022/10/20 11:05:48;;;;;;;13.48;2.05;;;;;;;10.06;100.00;99286.41;5174178;27;20050;-62
2022/10/20 11:08:25;;;;;;;5.68;1.10;;;;;;;10.15;100.00;99272.50;5174058;27;20057;-62
2022/10/20 11:11:03;;;;;;;23.38;2.03;;;;;;;9.62;100.00;99245.53;5174045;27;20091;-62
2022/10/20 11:13:35;;;;;;;10.75;1.00;;;;;;;9.56;100.00;99235.19;5174131;27;20065;-62
2022/10/20 11:16:21;;;;;;;15.10;2.38;;;;;;;9.56;100.00;99218.78;5174023;27;20042;-62
2022/10/20 11:19:36;;;;;;;11.02;1.67;;;;;;;9.48;100.00;99206.88;5174220;27;20048;-62
2022/10/20 11:22:13;;;;;;;39.50;2.90;;;;;;;9.55;100.00;99206.25;5173514;27;20548;-63
2022/10/20 11:24:47;;;;;;;6.82;1.40;;;;;;;9.43;100.00;99193.50;5173762;27;20060;-63
2022/10/20 11:27:17;;;;;;;21.05;2.78;;;;;;;9.62;100.00;99157.16;5174337;27;20536;-62
2022/10/20 11:29:48;;;;;;;17.60;1.67;;;;;;;9.64;100.00;99204.91;5173481;27;20524;-62
2022/10/20 11:32:25;;;;;;;8.20;1.23;;;;;;;9.58;100.00;99187.19;5173831;27;20519;-62
2022/10/20 11:34:59;;;;;;;11.57;2.50;;;;;;;9.46;100.00;99179.06;5173608;27;20057;-62
2022/10/20 11:37:28;;;;;;;4.28;1.20;;;;;;;9.52;100.00;99180.38;5173516;27;20050;-62
2022/10/20 11:40:02;;;;;;;0.88;0.52;;;;;;;9.40;100.00;99170.38;5173640;27;20077;-62
2022/10/20 11:42:36;;;;;;;4.53;0.88;;;;;;;9.60;100.00;99173.16;5173181;27;20050;-62